createdAt,value
2022-12-08T00:00:08.112Z,2.87
2022-12-08T00:02:38.786Z,2.88
2022-12-08T00:05:24.810Z,2.89
2022-12-08T00:08:10.260Z,2.85
2022-12-08T00:10:49.053Z,2.85
2022-12-08T00:13:16.196Z,2.87
2022-12-08T00:15:43.083Z,2.85
2022-12-08T00:18:09.482Z,2.81
2022-12-08T00:20:36.948Z,2.80
2022-12-08T00:23:04.257Z,2.77
2022-12-08T00:25:31.529Z,2.84
2022-12-08T00:27:58.490Z,2.78
2022-12-08T00:30:24.987Z,2.71
2022-12-08T00:32:51.776Z,2.72
2022-12-08T00:35:19.140Z,2.72
2022-12-08T00:37:45.873Z,2.73
2022-12-08T00:40:12.619Z,2.73
2022-12-08T00:42:39.139Z,2.75
2022-12-08T00:45:06.429Z,2.64
2022-12-08T00:47:33.003Z,2.68
2022-12-08T00:49:59.810Z,2.70
2022-12-08T00:52:26.380Z,2.64
2022-12-08T00:54:53.238Z,2.64
2022-12-08T00:57:19.665Z,2.62
2022-12-08T00:59:46.238Z,2.59
2022-12-08T01:02:13.342Z,2.60
2022-12-08T01:04:39.738Z,2.64
2022-12-08T01:07:06.516Z,2.61
2022-12-08T01:09:33.424Z,2.59
2022-12-08T01:12:00.443Z,2.64
2022-12-08T01:14:27.145Z,2.71
2022-12-08T01:16:54.042Z,2.68
2022-12-08T01:19:20.759Z,2.65
2022-12-08T01:21:47.789Z,2.57
2022-12-08T01:24:18.012Z,2.59
2022-12-08T01:26:44.697Z,2.50
2022-12-08T01:29:11.667Z,2.54
2022-12-08T01:31:39.262Z,2.59
2022-12-08T01:34:06.363Z,2.47
2022-12-08T01:36:37.339Z,2.48
2022-12-08T01:39:24.569Z,2.46
2022-12-08T01:42:20.819Z,2.49
2022-12-08T01:45:15.378Z,2.39
2022-12-08T01:48:10.986Z,2.45
2022-12-08T01:50:58.233Z,2.47
2022-12-08T01:53:44.723Z,2.48
2022-12-08T01:56:19.047Z,2.49
2022-12-08T01:58:49.839Z,2.48
2022-12-08T02:01:16.543Z,2.41
2022-12-08T02:03:57.908Z,2.39
2022-12-08T02:06:26.323Z,2.40
2022-12-08T02:08:55.157Z,2.41
2022-12-08T02:11:21.969Z,2.40
2022-12-08T02:13:52.678Z,2.36
2022-12-08T02:16:42.025Z,2.36
2022-12-08T02:19:31.604Z,2.32
2022-12-08T02:22:28.132Z,2.25
2022-12-08T02:25:26.540Z,2.22
2022-12-08T02:28:03.237Z,2.32
2022-12-08T02:30:46.865Z,2.26
2022-12-08T02:33:54.491Z,2.33
2022-12-08T02:36:46.956Z,2.28
2022-12-08T02:39:46.091Z,2.27
2022-12-08T02:42:25.986Z,2.28
2022-12-08T02:44:58.993Z,2.26
2022-12-08T02:47:29.441Z,2.19
2022-12-08T02:49:57.142Z,2.20
2022-12-08T02:52:23.531Z,2.27
2022-12-08T02:55:04.793Z,2.26
2022-12-08T02:57:46.505Z,2.15
2022-12-08T03:00:18.112Z,2.16
2022-12-08T03:02:47.709Z,2.19
2022-12-08T03:05:53.722Z,2.26
2022-12-08T03:08:30.323Z,2.28
2022-12-08T03:11:21.725Z,2.18
2022-12-08T03:13:51.995Z,2.26
2022-12-08T03:16:26.890Z,2.24
2022-12-08T03:19:09.887Z,2.29
2022-12-08T03:21:38.629Z,2.20
2022-12-08T03:24:08.009Z,2.20
2022-12-08T03:26:43.938Z,2.15
2022-12-08T03:29:11.337Z,2.19
2022-12-08T03:31:45.389Z,2.10
2022-12-08T03:34:15.054Z,2.10
2022-12-08T03:36:43.703Z,2.04
2022-12-08T03:39:11.353Z,2.01
2022-12-08T03:41:38.223Z,1.99
2022-12-08T03:44:04.883Z,2.03
2022-12-08T03:46:31.940Z,1.96
2022-12-08T03:48:58.499Z,2.00
2022-12-08T03:51:27.419Z,1.97
2022-12-08T03:53:54.140Z,1.99
2022-12-08T03:56:32.131Z,1.99
2022-12-08T03:58:59.225Z,2.12
2022-12-08T04:01:26.162Z,2.06
2022-12-08T04:03:53.305Z,2.03
2022-12-08T04:06:20.255Z,1.96
2022-12-08T04:08:48.501Z,1.95
2022-12-08T04:11:15.260Z,2.02
2022-12-08T04:13:42.844Z,2.01
2022-12-08T04:16:15.695Z,2.06
2022-12-08T04:18:42.715Z,1.94
2022-12-08T04:21:09.158Z,1.97
2022-12-08T04:23:36.074Z,1.97
2022-12-08T04:26:02.540Z,1.96
2022-12-08T04:28:32.160Z,1.95
2022-12-08T04:30:58.859Z,1.99
2022-12-08T04:33:25.833Z,1.91
2022-12-08T04:35:52.374Z,2.02
2022-12-08T04:38:19.246Z,1.99
2022-12-08T04:40:45.810Z,1.97
2022-12-08T04:43:12.761Z,2.00
2022-12-08T04:45:40.962Z,1.98
2022-12-08T04:48:09.654Z,2.00
2022-12-08T04:50:38.570Z,2.02
2022-12-08T04:53:05.558Z,2.12
2022-12-08T04:55:32.083Z,2.03
2022-12-08T04:57:59.023Z,2.10
2022-12-08T05:00:25.787Z,2.09
2022-12-08T05:02:52.318Z,1.99
2022-12-08T05:05:18.947Z,1.98
2022-12-08T05:07:45.710Z,1.99
2022-12-08T05:10:12.143Z,2.01
2022-12-08T05:12:38.610Z,2.02
2022-12-08T05:15:06.200Z,1.98
2022-12-08T05:17:32.913Z,2.05
2022-12-08T05:19:59.665Z,2.03
2022-12-08T05:22:26.128Z,2.12
2022-12-08T05:24:53.025Z,2.05
2022-12-08T05:27:19.396Z,1.99
2022-12-08T05:29:48.265Z,1.93
2022-12-08T05:32:14.961Z,1.96
2022-12-08T05:34:41.449Z,1.91
2022-12-08T05:37:08.223Z,1.87
2022-12-08T05:39:34.623Z,1.84
2022-12-08T05:42:01.575Z,1.87
2022-12-08T05:44:28.167Z,1.96
2022-12-08T05:46:55.089Z,1.91
2022-12-08T05:49:21.592Z,1.88
2022-12-08T05:51:48.483Z,1.88
2022-12-08T05:54:15.217Z,1.87
2022-12-08T05:56:41.859Z,1.82
2022-12-08T05:59:09.367Z,1.80
2022-12-08T06:01:36.730Z,1.84
2022-12-08T06:04:04.569Z,1.80
2022-12-08T06:06:31.665Z,1.80
2022-12-08T06:08:58.339Z,1.78
2022-12-08T06:11:29.470Z,1.77
2022-12-08T06:13:57.530Z,1.81
2022-12-08T06:16:26.205Z,1.88
2022-12-08T06:18:54.032Z,1.83
2022-12-08T06:21:20.847Z,1.85
2022-12-08T06:23:50.371Z,1.83
2022-12-08T06:26:17.705Z,1.86
2022-12-08T06:28:44.981Z,1.84
2022-12-08T06:31:15.637Z,1.80
2022-12-08T06:33:42.865Z,1.80
2022-12-08T06:36:11.914Z,1.82
2022-12-08T06:38:43.072Z,1.82
2022-12-08T06:41:10.299Z,1.80
2022-12-08T06:43:36.843Z,1.79
2022-12-08T06:46:05.617Z,1.81
2022-12-08T06:48:32.128Z,1.84
2022-12-08T06:51:07.186Z,1.84
2022-12-08T06:53:34.071Z,1.87
2022-12-08T06:56:00.636Z,1.87
2022-12-08T06:58:27.325Z,1.88
2022-12-08T07:00:54.031Z,1.85
2022-12-08T07:03:21.112Z,1.88
2022-12-08T07:05:47.781Z,1.93
2022-12-08T07:08:14.708Z,1.93
2022-12-08T07:10:41.281Z,1.94
2022-12-08T07:13:07.941Z,1.88
2022-12-08T07:15:34.349Z,1.95
2022-12-08T07:18:00.921Z,1.86
2022-12-08T07:20:27.827Z,1.89
2022-12-08T07:22:54.355Z,1.93
2022-12-08T07:25:21.239Z,1.91
2022-12-08T07:27:48.257Z,1.89
2022-12-08T07:30:15.084Z,1.90
2022-12-08T07:32:41.621Z,1.93
2022-12-08T07:35:09.144Z,1.96
2022-12-08T07:37:37.346Z,1.99
2022-12-08T07:40:06.771Z,1.97
2022-12-08T07:42:33.617Z,1.95
2022-12-08T07:45:00.553Z,1.99
2022-12-08T07:47:27.192Z,2.02
2022-12-08T07:49:53.682Z,1.97
2022-12-08T07:52:20.606Z,1.98
2022-12-08T07:54:47.893Z,2.01
2022-12-08T07:57:14.801Z,2.02
2022-12-08T07:59:41.286Z,2.06
2022-12-08T08:02:24.450Z,2.01
2022-12-08T08:04:52.354Z,2.13
2022-12-08T08:07:18.957Z,2.18
2022-12-08T08:09:45.956Z,2.17
2022-12-08T08:15:01.033Z,2.12
2022-12-08T08:17:28.907Z,2.15
2022-12-08T08:19:55.823Z,2.11
2022-12-08T08:22:22.542Z,2.13
2022-12-08T08:24:49.222Z,2.22
2022-12-08T08:27:15.616Z,2.21
2022-12-08T08:29:42.068Z,2.26
2022-12-08T08:32:09.125Z,2.23
2022-12-08T08:34:35.756Z,2.27
2022-12-08T08:37:02.335Z,2.19
2022-12-08T08:39:30.100Z,2.19
2022-12-08T08:41:56.531Z,2.20
2022-12-08T08:44:23.118Z,2.20
2022-12-08T08:46:50.112Z,2.18
2022-12-08T08:49:16.738Z,2.20
2022-12-08T08:51:43.759Z,2.26
2022-12-08T08:54:10.334Z,2.39
2022-12-08T08:56:36.715Z,2.36
2022-12-08T08:59:04.113Z,2.37
2022-12-08T09:01:30.905Z,2.31
2022-12-08T09:03:57.885Z,2.28
2022-12-08T09:06:24.942Z,2.32
2022-12-08T09:08:51.514Z,2.38
2022-12-08T09:11:18.555Z,2.36
2022-12-08T09:13:48.235Z,2.35
2022-12-08T09:16:15.119Z,2.38
2022-12-08T09:18:42.374Z,2.36
2022-12-08T09:21:13.114Z,2.42
2022-12-08T09:23:39.890Z,2.40
2022-12-08T09:26:06.799Z,2.48
2022-12-08T09:28:33.459Z,2.48
2022-12-08T09:31:00.742Z,2.48
2022-12-08T09:33:28.071Z,2.53
2022-12-08T09:35:54.640Z,2.51
2022-12-08T09:38:21.783Z,2.60
2022-12-08T09:40:52.708Z,2.60
2022-12-08T09:43:41.185Z,2.59
2022-12-08T09:46:10.600Z,2.64
2022-12-08T09:48:46.432Z,2.70
2022-12-08T09:51:15.303Z,2.83
2022-12-08T09:53:50.981Z,2.77
2022-12-08T09:56:22.471Z,2.76
2022-12-08T09:59:01.636Z,2.83
2022-12-08T10:01:34.174Z,2.81
2022-12-08T10:04:02.049Z,2.93
2022-12-08T10:06:39.567Z,2.98
2022-12-08T10:09:23.136Z,3.08
2022-12-08T10:12:07.895Z,3.12
2022-12-08T10:14:40.798Z,3.16
2022-12-08T10:17:18.442Z,3.18
2022-12-08T10:19:47.110Z,3.10
2022-12-08T10:22:25.412Z,3.14
2022-12-08T10:25:01.467Z,3.18
2022-12-08T10:27:28.206Z,3.28
2022-12-08T10:29:54.780Z,3.22
2022-12-08T10:32:24.736Z,3.23
2022-12-08T10:35:10.007Z,3.30
2022-12-08T10:37:36.681Z,3.32
2022-12-08T10:40:11.673Z,3.43
2022-12-08T10:42:42.682Z,3.47
2022-12-08T10:45:09.593Z,3.48
2022-12-08T10:47:38.963Z,3.53
2022-12-08T10:50:19.091Z,3.49
2022-12-08T10:52:53.400Z,3.49
2022-12-08T10:55:21.466Z,3.52
2022-12-08T10:57:50.981Z,3.54
2022-12-08T11:00:26.735Z,3.66
2022-12-08T11:03:04.748Z,3.51
2022-12-08T11:05:36.451Z,3.60
2022-12-08T11:08:04.968Z,3.65
2022-12-08T11:10:37.586Z,3.61
2022-12-08T11:13:07.148Z,3.68
2022-12-08T11:15:38.091Z,3.65
2022-12-08T11:18:23.021Z,3.63
2022-12-08T11:21:01.329Z,3.68
2022-12-08T11:23:29.892Z,3.79
2022-12-08T11:26:01.097Z,3.67
2022-12-08T11:28:31.230Z,3.71
2022-12-08T11:31:12.685Z,3.79
2022-12-08T11:33:42.553Z,3.77
2022-12-08T11:36:13.997Z,3.85
2022-12-08T11:38:43.740Z,3.78
2022-12-08T11:41:23.178Z,3.91
2022-12-08T11:43:58.631Z,3.91
2022-12-08T11:46:33.132Z,3.95
2022-12-08T11:49:06.207Z,3.93
2022-12-08T11:51:45.597Z,3.97
2022-12-08T11:54:30.470Z,3.92
2022-12-08T11:56:59.473Z,3.88
2022-12-08T11:59:28.983Z,3.88
2022-12-08T12:01:57.912Z,3.86
2022-12-08T12:04:33.160Z,3.87
2022-12-08T12:07:23.043Z,3.93
2022-12-08T12:10:26.216Z,3.91
2022-12-08T12:13:07.121Z,3.92
2022-12-08T12:15:55.479Z,4.02
2022-12-08T12:18:34.196Z,4.07
2022-12-08T12:21:22.601Z,4.09
2022-12-08T12:23:56.366Z,4.01
2022-12-08T12:26:25.438Z,3.97
2022-12-08T12:29:07.610Z,4.03
2022-12-08T12:31:38.366Z,4.13
2022-12-08T12:34:21.015Z,4.14
2022-12-08T12:36:51.016Z,4.06
2022-12-08T12:39:23.349Z,4.03
2022-12-08T12:41:53.785Z,3.97
2022-12-08T12:44:46.237Z,4.16
2022-12-08T12:47:15.019Z,4.30
2022-12-08T12:49:46.050Z,4.17
2022-12-08T12:52:15.609Z,4.19
2022-12-08T12:55:18.188Z,4.18
2022-12-08T12:57:54.720Z,4.17
2022-12-08T13:00:26.701Z,4.12
2022-12-08T13:02:55.934Z,4.23
2022-12-08T13:05:29.360Z,4.26
2022-12-08T13:07:57.768Z,4.32
2022-12-08T13:10:34.286Z,4.18
2022-12-08T13:13:09.944Z,4.18
2022-12-08T13:15:40.126Z,4.35
2022-12-08T13:18:16.410Z,4.34
2022-12-08T13:20:47.749Z,4.45
2022-12-08T13:23:35.989Z,4.45
2022-12-08T13:26:19.530Z,4.64
2022-12-08T13:29:01.963Z,4.76
2022-12-08T13:31:37.713Z,4.71
2022-12-08T13:34:08.577Z,4.60
2022-12-08T13:36:43.936Z,4.59
2022-12-08T13:39:28.856Z,4.40
2022-12-08T13:42:03.602Z,4.55
2022-12-08T13:48:13.780Z,4.29
2022-12-08T13:57:00.967Z,4.36
2022-12-08T13:59:24.988Z,4.36
2022-12-08T14:01:51.895Z,4.16
2022-12-08T14:04:42.525Z,4.23
2022-12-08T14:07:11.373Z,4.26
2022-12-08T14:09:38.004Z,4.18
2022-12-08T14:12:19.845Z,4.18
2022-12-08T14:15:04.922Z,4.12
2022-12-08T14:17:33.122Z,4.11
2022-12-08T14:20:22.611Z,4.08
2022-12-08T14:22:50.469Z,4.03
2022-12-08T14:25:18.432Z,3.95
2022-12-08T14:27:46.227Z,4.14
2022-12-08T14:30:15.750Z,4.14
2022-12-08T14:32:49.782Z,4.19
2022-12-08T14:35:24.552Z,4.21
2022-12-08T14:37:55.419Z,4.11
2022-12-08T14:40:28.939Z,4.12
2022-12-08T14:43:07.866Z,4.16
2022-12-08T14:46:01.406Z,4.18
2022-12-08T14:48:30.810Z,4.15
2022-12-08T14:51:14.577Z,4.02
2022-12-08T14:53:58.502Z,4.03
2022-12-08T14:56:32.377Z,3.96
2022-12-08T14:59:20.948Z,3.93
2022-12-08T15:01:50.450Z,3.89
2022-12-08T15:04:25.766Z,3.93
2022-12-08T15:07:21.477Z,3.92
2022-12-08T15:10:05.920Z,3.90
2022-12-08T15:12:33.227Z,3.86
2022-12-08T15:15:14.291Z,3.85
2022-12-08T15:17:51.151Z,3.84
2022-12-08T15:20:41.515Z,3.78
2022-12-08T15:23:29.749Z,3.82
2022-12-08T15:25:56.570Z,3.89
2022-12-08T15:28:30.346Z,3.90
2022-12-08T15:30:58.293Z,3.73
2022-12-08T15:33:25.317Z,3.76
2022-12-08T15:35:52.238Z,3.82
2022-12-08T15:38:29.037Z,3.79
2022-12-08T15:41:00.442Z,3.78
2022-12-08T15:43:28.152Z,3.82
2022-12-08T15:45:59.544Z,3.67
2022-12-08T15:48:28.992Z,3.68
2022-12-08T15:50:56.325Z,3.57
2022-12-08T15:53:23.322Z,3.62
2022-12-08T15:56:25.265Z,3.66
2022-12-08T15:58:54.309Z,3.51
2022-12-08T16:01:22.232Z,3.61
2022-12-08T16:09:30.930Z,3.57
2022-12-08T16:12:16.436Z,3.58
2022-12-08T16:17:31.573Z,3.49
2022-12-08T16:19:59.176Z,3.52
2022-12-08T16:25:20.711Z,3.56
2022-12-08T16:28:12.389Z,3.61
2022-12-08T16:30:41.317Z,3.51
2022-12-08T16:33:07.832Z,3.58
2022-12-08T16:35:34.690Z,3.53
2022-12-08T16:38:01.214Z,3.46
2022-12-08T16:40:28.209Z,3.52
2022-12-08T16:42:54.848Z,3.52
2022-12-08T16:45:27.376Z,3.54
2022-12-08T16:47:56.844Z,3.50
2022-12-08T16:50:29.332Z,3.61
2022-12-08T16:53:05.334Z,3.50
2022-12-08T16:55:33.294Z,3.61
2022-12-08T16:58:00.416Z,3.62
2022-12-08T17:00:29.081Z,3.66
2022-12-08T17:02:56.606Z,3.57
2022-12-08T17:05:25.639Z,3.55
2022-12-08T17:07:53.503Z,3.52
2022-12-08T17:10:23.928Z,3.43
2022-12-08T17:12:51.260Z,3.39
2022-12-08T17:15:21.174Z,3.30
2022-12-08T17:17:47.753Z,3.40
2022-12-08T17:20:18.309Z,3.43
2022-12-08T17:22:44.695Z,3.43
2022-12-08T17:25:11.725Z,3.34
2022-12-08T17:27:38.587Z,3.32
2022-12-08T17:30:06.634Z,3.37
2022-12-08T17:32:33.295Z,3.39
2022-12-08T17:34:59.919Z,3.30
2022-12-08T17:37:26.394Z,3.31
2022-12-08T17:39:52.788Z,3.32
2022-12-08T17:42:19.176Z,3.31
2022-12-08T17:44:46.581Z,3.30
2022-12-08T17:47:13.024Z,3.31
2022-12-08T17:49:39.550Z,3.36
2022-12-08T17:52:10.507Z,3.30
2022-12-08T17:54:37.482Z,3.40
2022-12-08T17:57:04.089Z,3.41
2022-12-08T17:59:31.937Z,3.31
2022-12-08T18:01:59.030Z,3.28
2022-12-08T18:04:27.950Z,3.32
2022-12-08T18:06:55.119Z,3.39
2022-12-08T18:09:21.692Z,3.33
2022-12-08T18:11:48.334Z,3.38
2022-12-08T18:14:16.139Z,3.28
2022-12-08T18:16:45.195Z,3.31
2022-12-08T18:19:13.617Z,3.30
2022-12-08T18:21:42.016Z,3.27
2022-12-08T18:24:15.188Z,3.21
2022-12-08T18:26:42.036Z,3.23
2022-12-08T18:29:08.557Z,3.27
2022-12-08T18:31:35.284Z,3.27
2022-12-08T18:34:02.005Z,3.30
2022-12-08T18:36:28.451Z,3.38
2022-12-08T18:38:55.040Z,3.25
2022-12-08T18:41:24.490Z,3.26
2022-12-08T18:43:53.857Z,3.26
2022-12-08T18:46:21.878Z,3.28
2022-12-08T18:48:50.462Z,3.29
2022-12-08T18:51:20.883Z,3.31
2022-12-08T18:53:48.289Z,3.19
2022-12-08T18:56:29.901Z,3.25
2022-12-08T18:59:02.826Z,3.29
2022-12-08T19:01:31.907Z,3.21
2022-12-08T19:04:26.862Z,3.27
2022-12-08T19:06:46.119Z,3.23
2022-12-08T19:09:14.322Z,3.21
2022-12-08T19:11:41.690Z,3.28
2022-12-08T19:14:08.774Z,3.26
2022-12-08T19:16:35.584Z,3.23
2022-12-08T19:19:02.806Z,3.28
2022-12-08T19:21:29.467Z,3.28
2022-12-08T19:23:58.168Z,3.29
2022-12-08T19:26:27.009Z,3.30
2022-12-08T19:28:54.086Z,3.17
2022-12-08T19:31:20.788Z,3.25
2022-12-08T19:33:47.310Z,3.34
2022-12-08T19:36:17.026Z,3.24
2022-12-08T19:39:02.206Z,3.19
2022-12-08T19:41:48.024Z,3.18
2022-12-08T19:44:36.834Z,3.23
2022-12-08T19:47:03.870Z,3.26
2022-12-08T19:49:30.835Z,3.30
2022-12-08T19:51:57.832Z,3.25
2022-12-08T19:54:24.780Z,3.27
2022-12-08T19:56:51.342Z,3.21
2022-12-08T19:59:18.100Z,3.26
2022-12-08T20:01:45.063Z,3.31
2022-12-08T20:04:16.179Z,3.20
2022-12-08T20:06:43.881Z,3.20
2022-12-08T20:09:12.283Z,3.20
2022-12-08T20:11:39.323Z,3.15
2022-12-08T20:14:06.366Z,3.18
2022-12-08T20:16:33.695Z,3.23
2022-12-08T20:19:00.725Z,3.27
2022-12-08T20:21:27.965Z,3.29
2022-12-08T20:23:54.681Z,3.24
2022-12-08T20:26:22.226Z,3.22
2022-12-08T20:28:49.005Z,3.12
2022-12-08T20:31:25.032Z,3.12
2022-12-08T20:33:52.217Z,3.15
2022-12-08T20:36:20.911Z,3.22
2022-12-08T20:38:49.657Z,3.20
2022-12-08T20:41:16.717Z,3.19
2022-12-08T20:43:46.041Z,3.20
2022-12-08T20:46:14.831Z,3.16
2022-12-08T20:48:42.347Z,3.14
2022-12-08T20:51:11.714Z,3.12
2022-12-08T20:53:38.561Z,3.20
2022-12-08T20:56:05.511Z,3.18
2022-12-08T20:58:31.977Z,3.20
2022-12-08T21:00:58.466Z,3.18
2022-12-08T21:03:26.409Z,3.10
2022-12-08T21:05:52.971Z,3.02
2022-12-08T21:08:19.869Z,3.09
2022-12-08T21:10:53.542Z,3.08
2022-12-08T21:13:20.305Z,2.97
2022-12-08T21:15:47.702Z,3.07
2022-12-08T21:18:15.947Z,3.04
2022-12-08T21:20:43.159Z,3.00
2022-12-08T21:23:10.123Z,2.89
2022-12-08T21:25:44.585Z,2.74
2022-12-08T21:28:12.377Z,2.79
2022-12-08T21:30:41.754Z,2.84
2022-12-08T21:33:08.404Z,2.79
2022-12-08T21:35:35.206Z,2.78
2022-12-08T21:38:01.582Z,2.82
2022-12-08T21:40:28.064Z,2.82
2022-12-08T21:42:54.775Z,2.82
2022-12-08T21:45:21.990Z,2.84
2022-12-08T21:47:50.001Z,2.86
2022-12-08T21:50:17.717Z,2.87
2022-12-08T21:52:47.252Z,2.87
2022-12-08T21:55:16.026Z,2.90
2022-12-08T21:57:43.140Z,2.92
2022-12-08T22:00:14.385Z,2.69
2022-12-08T22:02:41.425Z,2.68
2022-12-08T22:05:09.252Z,2.75
2022-12-08T22:07:38.416Z,2.65
2022-12-08T22:10:07.619Z,2.62
2022-12-08T22:12:35.785Z,2.54
2022-12-08T22:15:06.033Z,2.61
2022-12-08T22:17:37.576Z,2.63
2022-12-08T22:20:10.231Z,2.72
2022-12-08T22:22:37.835Z,2.70
2022-12-08T22:25:06.119Z,2.73
2022-12-08T22:27:36.238Z,2.56
2022-12-08T22:30:04.085Z,2.51
2022-12-08T22:32:31.912Z,2.62
2022-12-08T22:34:58.574Z,2.58
2022-12-08T22:37:24.964Z,2.58
2022-12-08T22:39:51.846Z,2.44
2022-12-08T22:42:19.076Z,2.56
2022-12-08T22:44:45.901Z,2.59
2022-12-08T22:47:12.396Z,2.56
2022-12-08T22:49:39.346Z,2.55
2022-12-08T22:52:05.856Z,2.60
2022-12-08T22:54:33.068Z,2.68
2022-12-08T22:56:59.689Z,2.62
2022-12-08T22:59:26.483Z,2.63
2022-12-08T23:01:54.085Z,2.71
2022-12-08T23:04:20.905Z,2.63
2022-12-08T23:06:47.866Z,2.71
2022-12-08T23:09:15.149Z,2.62
2022-12-08T23:11:41.803Z,2.65
2022-12-08T23:14:08.716Z,2.66
2022-12-08T23:16:35.817Z,2.62
2022-12-08T23:19:02.703Z,2.66
2022-12-08T23:21:29.838Z,2.56
2022-12-08T23:23:56.403Z,2.67
2022-12-08T23:26:26.849Z,2.61
2022-12-08T23:28:54.056Z,2.61
2022-12-08T23:31:21.538Z,2.60
2022-12-08T23:33:48.168Z,2.63
2022-12-08T23:36:16.189Z,2.63
2022-12-08T23:38:43.416Z,2.59
2022-12-08T23:41:13.044Z,2.49
2022-12-08T23:43:45.381Z,2.52
2022-12-08T23:46:13.784Z,2.51
2022-12-08T23:48:40.644Z,2.53
2022-12-08T23:51:08.325Z,2.38
2022-12-08T23:53:34.814Z,2.27
2022-12-08T23:56:04.691Z,2.24
2022-12-08T23:58:32.249Z,2.33
